sensor_id;sensor_type;location;lat;lon;timestamp;temperature;humidity
1011;DHT22;494;48.744;10.106;2024-01-25T00:36:34;10.10;1.00
1011;DHT22;494;48.744;10.106;2024-01-25T01:39:37;9.60;1.00
1011;DHT22;494;48.744;10.106;2024-01-25T01:47:31;9.50;1.00
1011;DHT22;494;48.744;10.106;2024-01-25T02:15:05;9.80;1.00
1011;DHT22;494;48.744;10.106;2024-01-25T02:31:35;9.60;1.00
1011;DHT22;494;48.744;10.106;2024-01-25T02:45:26;10.10;1.00
1011;DHT22;494;48.744;10.106;2024-01-25T03:29:37;9.60;1.00
1011;DHT22;494;48.744;10.106;2024-01-25T03:48:58;9.40;1.00
1011;DHT22;494;48.744;10.106;2024-01-25T03:51:28;9.50;1.00
1011;DHT22;494;48.744;10.106;2024-01-25T03:58:55;9.40;1.00
1011;DHT22;494;48.744;10.106;2024-01-25T04:10:25;9.10;1.00
1011;DHT22;494;48.744;10.106;2024-01-25T04:17:08;9.20;1.00
1011;DHT22;494;48.744;10.106;2024-01-25T04:20:31;9.20;1.00
1011;DHT22;494;48.744;10.106;2024-01-25T04:53:04;9.50;1.00
1011;DHT22;494;48.744;10.106;2024-01-25T05:21:46;8.70;1.00
1011;DHT22;494;48.744;10.106;2024-01-25T05:24:32;8.40;1.00
1011;DHT22;494;48.744;10.106;2024-01-25T05:50:40;8.40;1.00
1011;DHT22;494;48.744;10.106;2024-01-25T09:56:34;13.20;1.00
1011;DHT22;494;48.744;10.106;2024-01-25T12:43:14;18.90;1.00
1011;DHT22;494;48.744;10.106;2024-01-25T12:47:00;18.70;1.00
1011;DHT22;494;48.744;10.106;2024-01-25T16:02:56;11.60;1.00
1011;DHT22;494;48.744;10.106;2024-01-25T16:05:44;11.50;1.00
1011;DHT22;494;48.744;10.106;2024-01-25T16:08:52;11.30;1.00
1011;DHT22;494;48.744;10.106;2024-01-25T16:11:35;11.10;1.00
1011;DHT22;494;48.744;10.106;2024-01-25T16:14:26;10.90;1.00
1011;DHT22;494;48.744;10.106;2024-01-25T16:17:57;10.60;1.00
1011;DHT22;494;48.744;10.106;2024-01-25T16:50:15;8.90;1.00
1011;DHT22;494;48.744;10.106;2024-01-25T16:53:38;8.70;1.00
1011;DHT22;494;48.744;10.106;2024-01-25T16:56:39;8.70;1.00
1011;DHT22;494;48.744;10.106;2024-01-25T17:07:33;8.10;1.00
1011;DHT22;494;48.744;10.106;2024-01-25T17:11:13;8.20;1.00
1011;DHT22;494;48.744;10.106;2024-01-25T17:14:29;8.20;1.00
1011;DHT22;494;48.744;10.106;2024-01-25T17:24:57;8.10;1.00
1011;DHT22;494;48.744;10.106;2024-01-25T17:28:22;8.00;1.00
1011;DHT22;494;48.744;10.106;2024-01-25T17:41:32;8.20;1.00
1011;DHT22;494;48.744;10.106;2024-01-25T18:17:23;8.30;1.00
1011;DHT22;494;48.744;10.106;2024-01-25T18:24:24;7.90;1.00
1011;DHT22;494;48.744;10.106;2024-01-25T18:31:16;7.70;1.00
1011;DHT22;494;48.744;10.106;2024-01-25T18:42:07;7.80;1.00
1011;DHT22;494;48.744;10.106;2024-01-25T18:45:44;8.10;1.00
1011;DHT22;494;48.744;10.106;2024-01-25T19:37:01;8.10;1.00
1011;DHT22;494;48.744;10.106;2024-01-25T19:39:51;8.00;1.00
1011;DHT22;494;48.744;10.106;2024-01-25T19:42:43;8.10;1.00
1011;DHT22;494;48.744;10.106;2024-01-25T19:45:45;8.00;1.00
1011;DHT22;494;48.744;10.106;2024-01-25T19:48:32;7.90;1.00
1011;DHT22;494;48.744;10.106;2024-01-25T19:51:15;7.90;1.00
1011;DHT22;494;48.744;10.106;2024-01-25T19:53:50;7.90;1.00
1011;DHT22;494;48.744;10.106;2024-01-25T19:56:42;7.90;1.00
1011;DHT22;494;48.744;10.106;2024-01-25T19:59:22;7.90;1.00
1011;DHT22;494;48.744;10.106;2024-01-25T20:02:01;7.90;1.00
1011;DHT22;494;48.744;10.106;2024-01-25T20:04:35;7.90;1.00
1011;DHT22;494;48.744;10.106;2024-01-25T20:07:06;7.80;1.00
1011;DHT22;494;48.744;10.106;2024-01-25T20:09:42;7.90;1.00
1011;DHT22;494;48.744;10.106;2024-01-25T20:12:26;7.90;1.00
1011;DHT22;494;48.744;10.106;2024-01-25T20:15:11;7.90;1.00
1011;DHT22;494;48.744;10.106;2024-01-25T20:17:47;8.00;1.00
1011;DHT22;494;48.744;10.106;2024-01-25T20:20:21;8.10;1.00
1011;DHT22;494;48.744;10.106;2024-01-25T20:23:09;8.00;1.00
1011;DHT22;494;48.744;10.106;2024-01-25T20:25:44;8.20;1.00
1011;DHT22;494;48.744;10.106;2024-01-25T20:28:21;8.30;1.00
1011;DHT22;494;48.744;10.106;2024-01-25T20:30:51;8.30;1.00
1011;DHT22;494;48.744;10.106;2024-01-25T20:33:23;8.40;1.00
1011;DHT22;494;48.744;10.106;2024-01-25T20:36:12;8.40;1.00
1011;DHT22;494;48.744;10.106;2024-01-25T20:38:44;8.50;1.00
1011;DHT22;494;48.744;10.106;2024-01-25T20:41:35;8.50;1.00
1011;DHT22;494;48.744;10.106;2024-01-25T20:44:07;8.50;1.00
1011;DHT22;494;48.744;10.106;2024-01-25T20:46:44;8.50;1.00
1011;DHT22;494;48.744;10.106;2024-01-25T20:49:23;8.60;1.00
1011;DHT22;494;48.744;10.106;2024-01-25T20:52:08;8.50;1.00
1011;DHT22;494;48.744;10.106;2024-01-25T20:54:56;8.60;1.00
1011;DHT22;494;48.744;10.106;2024-01-25T20:58:01;8.50;1.00
1011;DHT22;494;48.744;10.106;2024-01-25T21:00:45;8.40;1.00
1011;DHT22;494;48.744;10.106;2024-01-25T21:03:51;8.40;1.00
1011;DHT22;494;48.744;10.106;2024-01-25T21:06:31;8.50;1.00
1011;DHT22;494;48.744;10.106;2024-01-25T21:09:01;8.40;1.00
1011;DHT22;494;48.744;10.106;2024-01-25T21:11:40;8.40;1.00
1011;DHT22;494;48.744;10.106;2024-01-25T21:14:14;8.40;1.00
1011;DHT22;494;48.744;10.106;2024-01-25T21:16:45;8.40;1.00
1011;DHT22;494;48.744;10.106;2024-01-25T21:19:19;8.40;1.00
1011;DHT22;494;48.744;10.106;2024-01-25T21:21:50;8.30;1.00
1011;DHT22;494;48.744;10.106;2024-01-25T21:24:20;8.30;1.00
1011;DHT22;494;48.744;10.106;2024-01-25T21:26:52;8.20;1.00
1011;DHT22;494;48.744;10.106;2024-01-25T21:29:27;8.10;1.00
1011;DHT22;494;48.744;10.106;2024-01-25T21:31:57;8.20;1.00
1011;DHT22;494;48.744;10.106;2024-01-25T21:34:26;8.30;1.00
1011;DHT22;494;48.744;10.106;2024-01-25T21:36:55;8.40;1.00
1011;DHT22;494;48.744;10.106;2024-01-25T21:39:25;8.50;1.00
1011;DHT22;494;48.744;10.106;2024-01-25T21:41:54;8.60;1.00
1011;DHT22;494;48.744;10.106;2024-01-25T21:44:29;8.70;1.00
1011;DHT22;494;48.744;10.106;2024-01-25T21:47:01;8.70;1.00
1011;DHT22;494;48.744;10.106;2024-01-25T21:49:35;8.70;1.00
1011;DHT22;494;48.744;10.106;2024-01-25T21:52:05;8.70;1.00
1011;DHT22;494;48.744;10.106;2024-01-25T21:54:34;8.70;1.00
1011;DHT22;494;48.744;10.106;2024-01-25T21:57:05;8.70;1.00
1011;DHT22;494;48.744;10.106;2024-01-25T21:59:40;8.70;1.00
1011;DHT22;494;48.744;10.106;2024-01-25T22:02:09;8.80;1.00
1011;DHT22;494;48.744;10.106;2024-01-25T22:04:40;8.70;1.00
1011;DHT22;494;48.744;10.106;2024-01-25T22:07:10;8.80;1.00
1011;DHT22;494;48.744;10.106;2024-01-25T22:09:48;8.70;1.00
1011;DHT22;494;48.744;10.106;2024-01-25T22:12:21;8.80;1.00
1011;DHT22;494;48.744;10.106;2024-01-25T22:14:52;8.70;1.00
1011;DHT22;494;48.744;10.106;2024-01-25T22:17:22;8.50;1.00
1011;DHT22;494;48.744;10.106;2024-01-25T22:20:07;8.60;1.00
1011;DHT22;494;48.744;10.106;2024-01-25T22:22:40;8.70;1.00
1011;DHT22;494;48.744;10.106;2024-01-25T22:25:09;8.70;1.00
1011;DHT22;494;48.744;10.106;2024-01-25T22:27:39;8.80;1.00
1011;DHT22;494;48.744;10.106;2024-01-25T22:30:20;8.80;1.00
1011;DHT22;494;48.744;10.106;2024-01-25T22:32:51;8.90;1.00
1011;DHT22;494;48.744;10.106;2024-01-25T22:35:21;9.00;1.00
1011;DHT22;494;48.744;10.106;2024-01-25T22:37:54;9.00;1.00
1011;DHT22;494;48.744;10.106;2024-01-25T22:40:24;9.10;1.00
1011;DHT22;494;48.744;10.106;2024-01-25T22:42:55;9.20;1.00
1011;DHT22;494;48.744;10.106;2024-01-25T22:45:29;9.20;1.00
1011;DHT22;494;48.744;10.106;2024-01-25T22:48:03;9.10;1.00
1011;DHT22;494;48.744;10.106;2024-01-25T22:50:33;9.30;1.00
1011;DHT22;494;48.744;10.106;2024-01-25T22:53:20;9.30;1.00
1011;DHT22;494;48.744;10.106;2024-01-25T22:55:49;9.30;1.00
1011;DHT22;494;48.744;10.106;2024-01-25T22:58:19;9.40;1.00
1011;DHT22;494;48.744;10.106;2024-01-25T23:00:50;9.40;1.00
1011;DHT22;494;48.744;10.106;2024-01-25T23:03:21;9.20;1.00
1011;DHT22;494;48.744;10.106;2024-01-25T23:05:54;9.40;1.00
1011;DHT22;494;48.744;10.106;2024-01-25T23:08:25;9.40;1.00
1011;DHT22;494;48.744;10.106;2024-01-25T23:10:54;9.40;1.00
1011;DHT22;494;48.744;10.106;2024-01-25T23:13:26;9.50;1.00
1011;DHT22;494;48.744;10.106;2024-01-25T23:15:57;9.50;1.00
1011;DHT22;494;48.744;10.106;2024-01-25T23:18:31;9.50;1.00
1011;DHT22;494;48.744;10.106;2024-01-25T23:21:00;9.60;1.00
1011;DHT22;494;48.744;10.106;2024-01-25T23:23:29;9.60;1.00
1011;DHT22;494;48.744;10.106;2024-01-25T23:25:59;9.60;1.00
1011;DHT22;494;48.744;10.106;2024-01-25T23:28:28;9.50;1.00
1011;DHT22;494;48.744;10.106;2024-01-25T23:30:59;9.60;1.00
1011;DHT22;494;48.744;10.106;2024-01-25T23:33:28;9.70;1.00
1011;DHT22;494;48.744;10.106;2024-01-25T23:35:57;9.80;1.00
1011;DHT22;494;48.744;10.106;2024-01-25T23:38:26;9.90;1.00
1011;DHT22;494;48.744;10.106;2024-01-25T23:40:55;10.00;1.00
1011;DHT22;494;48.744;10.106;2024-01-25T23:43:24;10.10;1.00
1011;DHT22;494;48.744;10.106;2024-01-25T23:45:54;10.20;1.00
1011;DHT22;494;48.744;10.106;2024-01-25T23:48:25;10.20;1.00
1011;DHT22;494;48.744;10.106;2024-01-25T23:50:59;10.20;1.00
1011;DHT22;494;48.744;10.106;2024-01-25T23:53:30;10.10;1.00
1011;DHT22;494;48.744;10.106;2024-01-25T23:55:59;10.10;1.00
1011;DHT22;494;48.744;10.106;2024-01-25T23:58:30;10.20;1.00
